createdAt,value
2019-03-12T00:00:54.395Z,7.72
2019-03-12T00:03:42.664Z,10.05
2019-03-12T00:06:23.132Z,5.78
2019-03-12T00:09:04.241Z,10.20
2019-03-12T00:11:45.598Z,9.97
2019-03-12T00:14:25.968Z,8.40
2019-03-12T00:17:07.009Z,6.90
2019-03-12T00:19:47.769Z,7.08
2019-03-12T00:22:28.488Z,7.47
2019-03-12T00:25:09.713Z,8.13
2019-03-12T00:27:50.574Z,7.08
2019-03-12T00:30:31.439Z,7.42
2019-03-12T00:33:12.288Z,7.28
2019-03-12T00:35:53.031Z,7.60
2019-03-12T00:38:33.972Z,9.73
2019-03-12T00:41:14.605Z,6.67
2019-03-12T00:43:55.497Z,8.03
2019-03-12T00:46:36.401Z,10.72
2019-03-12T00:49:17.369Z,10.35
2019-03-12T00:51:58.008Z,7.92
2019-03-12T00:54:39.305Z,8.98
2019-03-12T00:57:19.873Z,8.97
2019-03-12T01:00:00.525Z,10.10
2019-03-12T01:02:41.820Z,8.88
2019-03-12T01:05:22.512Z,9.58
2019-03-12T01:08:03.313Z,10.65
2019-03-12T01:10:44.101Z,10.00
2019-03-12T01:13:24.833Z,8.35
2019-03-12T01:16:05.780Z,8.23
2019-03-12T01:18:46.201Z,10.93
2019-03-12T01:21:27.212Z,10.20
2019-03-12T01:24:08.368Z,12.15
2019-03-12T01:26:49.084Z,9.70
2019-03-12T01:29:29.853Z,12.45
2019-03-12T01:32:10.784Z,10.40
2019-03-12T01:34:51.762Z,12.80
2019-03-12T01:37:32.846Z,10.88
2019-03-12T01:40:13.498Z,12.28
2019-03-12T01:42:54.609Z,13.25
2019-03-12T01:45:35.148Z,12.13
2019-03-12T01:48:16.111Z,10.87
2019-03-12T01:50:56.768Z,13.33
2019-03-12T01:53:37.583Z,11.30
2019-03-12T01:56:18.589Z,12.85
2019-03-12T01:58:59.368Z,12.35
2019-03-12T02:01:40.057Z,12.73
2019-03-12T02:04:21.402Z,11.30
2019-03-12T02:06:50.195Z,10.77
2019-03-12T02:09:57.720Z,11.97
2019-03-12T02:12:45.708Z,11.53
2019-03-12T02:15:33.768Z,14.03
2019-03-12T02:18:21.837Z,14.03
2019-03-12T02:21:09.849Z,13.83
2019-03-12T02:23:57.956Z,10.40
2019-03-12T02:29:53.621Z,11.10
2019-03-12T02:32:44.407Z,12.50
2019-03-12T02:35:31.413Z,12.40
2019-03-12T02:38:19.420Z,10.00
2019-03-12T02:41:07.471Z,11.28
2019-03-12T02:43:36.288Z,13.00
2019-03-12T02:46:24.531Z,11.22
2019-03-12T02:49:12.622Z,12.67
2019-03-12T02:52:00.587Z,11.43
2019-03-12T02:54:48.583Z,12.00
2019-03-12T02:57:36.583Z,11.20
2019-03-12T03:00:24.986Z,11.43
2019-03-12T03:03:12.958Z,12.93
2019-03-12T03:06:20.478Z,10.38
2019-03-12T03:08:49.758Z,11.45
2019-03-12T03:11:37.710Z,11.38
2019-03-12T03:14:44.914Z,13.35
2019-03-12T03:17:33.225Z,10.35
2019-03-12T03:20:40.425Z,11.48
2019-03-12T03:23:28.431Z,9.93
2019-03-12T03:26:16.661Z,9.45
2019-03-12T03:29:04.697Z,12.30
2019-03-12T03:31:52.674Z,11.38
2019-03-12T03:34:40.658Z,14.13
2019-03-12T03:37:28.634Z,13.05
2019-03-12T03:40:17.661Z,13.08
2019-03-12T03:46:13.233Z,11.68
2019-03-12T03:49:01.570Z,12.75
2019-03-12T03:51:49.833Z,13.03
2019-03-12T03:54:37.838Z,11.95
2019-03-12T03:57:25.831Z,14.23
2019-03-12T04:00:15.459Z,11.50
2019-03-12T04:03:05.684Z,11.57
2019-03-12T04:05:53.725Z,9.43
2019-03-12T04:08:34.598Z,11.45
2019-03-12T04:11:15.115Z,11.93
2019-03-12T04:13:56.185Z,10.75
2019-03-12T04:16:36.925Z,10.08
2019-03-12T04:19:05.673Z,10.28
2019-03-12T04:21:34.437Z,9.05
2019-03-12T04:24:22.433Z,10.23
2019-03-12T04:30:17.629Z,10.95
2019-03-12T04:33:05.677Z,11.18
2019-03-12T04:35:53.658Z,8.20
2019-03-12T04:38:41.633Z,10.43
2019-03-12T04:41:29.999Z,9.48
2019-03-12T04:44:17.981Z,10.35
2019-03-12T04:47:06.297Z,11.03
2019-03-12T04:49:54.576Z,11.33
2019-03-12T04:52:42.979Z,10.03
2019-03-12T04:55:31.272Z,11.75
2019-03-12T04:58:19.276Z,9.35
2019-03-12T05:01:09.642Z,11.33
2019-03-12T05:03:38.596Z,10.25
2019-03-12T05:06:20.156Z,10.40
2019-03-12T05:09:01.454Z,10.82
2019-03-12T05:11:42.237Z,9.43
2019-03-12T05:14:23.419Z,9.80
2019-03-12T05:17:04.240Z,9.85
2019-03-12T05:19:45.192Z,12.45
2019-03-12T05:22:26.082Z,12.25
2019-03-12T05:25:06.789Z,12.40
2019-03-12T05:27:47.448Z,14.28
2019-03-12T05:30:28.304Z,10.50
2019-03-12T05:33:08.862Z,12.47
2019-03-12T05:35:49.676Z,11.60
2019-03-12T05:38:30.233Z,10.67
2019-03-12T05:41:12.318Z,14.55
2019-03-12T05:43:53.592Z,13.18
2019-03-12T05:46:34.339Z,11.08
2019-03-12T05:49:15.148Z,13.03
2019-03-12T05:54:38.700Z,13.30
2019-03-12T05:57:19.354Z,12.93
2019-03-12T06:00:00.353Z,11.88
2019-03-12T06:02:40.936Z,13.35
2019-03-12T06:05:09.751Z,12.70
2019-03-12T06:07:38.608Z,12.43
2019-03-12T06:10:26.383Z,14.13
2019-03-12T06:13:14.415Z,13.97
2019-03-12T06:16:02.373Z,13.05
2019-03-12T06:18:50.539Z,13.28
2019-03-12T06:21:38.552Z,13.28
2019-03-12T06:24:26.517Z,12.93
2019-03-12T06:27:14.707Z,13.98
2019-03-12T06:30:02.813Z,16.07
2019-03-12T06:32:54.390Z,14.47
2019-03-12T06:36:01.434Z,16.55
2019-03-12T06:39:08.495Z,14.07
2019-03-12T06:42:01.144Z,13.60
2019-03-12T06:45:08.195Z,13.93
2019-03-12T06:48:15.374Z,12.83
2019-03-12T06:51:09.553Z,11.15
2019-03-12T06:54:16.605Z,13.45
2019-03-12T06:57:23.641Z,16.23
2019-03-12T07:00:11.720Z,14.13
2019-03-12T07:03:18.421Z,12.60
2019-03-12T07:06:25.460Z,13.48
2019-03-12T07:09:32.603Z,16.37
2019-03-12T07:12:39.710Z,17.27
2019-03-12T07:15:46.787Z,12.90
2019-03-12T07:18:53.853Z,15.55
2019-03-12T07:22:00.915Z,14.58
2019-03-12T07:25:08.062Z,16.45
2019-03-12T07:28:15.122Z,14.40
2019-03-12T07:31:22.594Z,14.68
2019-03-12T07:34:19.515Z,12.10
2019-03-12T07:37:26.935Z,13.95
2019-03-12T07:40:34.002Z,14.03
2019-03-12T07:43:41.049Z,13.85
2019-03-12T07:46:48.343Z,13.78
2019-03-12T07:49:44.352Z,12.13
2019-03-12T07:52:51.388Z,13.33
2019-03-12T07:55:58.644Z,13.58
2019-03-12T07:59:08.866Z,13.00
2019-03-12T08:02:14.722Z,12.53
2019-03-12T08:05:21.761Z,13.77
2019-03-12T08:08:10.937Z,12.78
2019-03-12T08:10:56.703Z,12.23
2019-03-12T08:13:56.684Z,13.20
2019-03-12T08:16:55.031Z,11.35
2019-03-12T08:19:54.964Z,9.78
2019-03-12T08:22:54.694Z,9.05
2019-03-12T08:25:54.897Z,10.07
2019-03-12T08:28:55.240Z,12.10
2019-03-12T08:31:54.857Z,9.48
2019-03-12T08:34:55.092Z,9.20
2019-03-12T08:37:55.232Z,12.50
2019-03-12T08:40:55.428Z,10.47
2019-03-12T08:43:47.752Z,10.37
2019-03-12T08:46:50.744Z,9.85
2019-03-12T08:49:50.586Z,8.33
2019-03-12T08:52:50.241Z,9.10
2019-03-12T08:55:52.640Z,9.48
2019-03-12T08:58:52.495Z,11.63
2019-03-12T09:01:47.575Z,10.43
2019-03-12T09:04:47.256Z,10.10
2019-03-12T09:07:46.874Z,9.00
2019-03-12T09:10:42.671Z,10.03
2019-03-12T09:13:45.597Z,9.28
2019-03-12T09:16:51.417Z,9.30
2019-03-12T09:19:50.862Z,7.70
2019-03-12T09:22:50.454Z,7.92
2019-03-12T09:25:49.885Z,8.53
2019-03-12T09:28:49.245Z,8.38
2019-03-12T09:31:36.402Z,8.68
2019-03-12T09:34:29.575Z,9.68
2019-03-12T09:37:29.753Z,11.78
2019-03-12T09:40:29.315Z,10.05
2019-03-12T09:43:28.949Z,8.38
2019-03-12T09:46:28.650Z,10.20
2019-03-12T09:49:17.689Z,9.57
2019-03-12T09:52:05.756Z,9.18
2019-03-12T09:54:53.581Z,9.18
2019-03-12T09:58:00.636Z,7.42
2019-03-12T10:00:55.366Z,9.95
2019-03-12T10:04:02.630Z,9.60
2019-03-12T10:06:52.739Z,9.10
2019-03-12T10:09:52.842Z,9.43
2019-03-12T10:12:45.423Z,9.27
2019-03-12T10:15:36.103Z,8.65
2019-03-12T10:18:36.121Z,11.43
2019-03-12T10:21:35.637Z,8.50
2019-03-12T10:24:22.832Z,10.50
2019-03-12T10:27:10.544Z,8.50
2019-03-12T10:30:00.422Z,10.13
2019-03-12T10:32:59.933Z,11.18
2019-03-12T10:36:00.353Z,15.18
2019-03-12T10:38:59.920Z,10.50
2019-03-12T10:41:59.355Z,8.80
2019-03-12T10:44:46.169Z,10.28
2019-03-12T10:47:26.844Z,10.85
2019-03-12T10:50:07.964Z,9.28
2019-03-12T10:52:49.047Z,11.00
2019-03-12T10:55:29.381Z,8.50
2019-03-12T10:58:10.396Z,9.05
2019-03-12T11:00:50.695Z,7.80
2019-03-12T11:03:31.459Z,9.45
2019-03-12T11:06:12.212Z,8.60
2019-03-12T11:08:52.921Z,9.05
2019-03-12T11:11:33.808Z,6.95
2019-03-12T11:14:14.729Z,8.78
2019-03-12T11:16:53.953Z,9.05
2019-03-12T11:19:41.941Z,10.13
2019-03-12T11:22:29.912Z,12.23
2019-03-12T11:25:27.287Z,9.13
2019-03-12T11:28:07.889Z,8.85
2019-03-12T11:30:55.869Z,9.20
2019-03-12T11:33:43.943Z,10.10
2019-03-12T11:36:31.927Z,9.53
2019-03-12T11:39:19.926Z,8.50
2019-03-12T11:42:07.884Z,9.58
2019-03-12T11:44:55.925Z,9.43
2019-03-12T11:47:44.160Z,9.30
2019-03-12T11:50:32.141Z,8.05
2019-03-12T11:53:20.140Z,9.70
2019-03-12T11:56:08.121Z,7.62
2019-03-12T11:58:56.335Z,8.98
2019-03-12T12:01:45.856Z,9.63
2019-03-12T12:04:33.815Z,9.25
2019-03-12T12:07:14.560Z,9.60
2019-03-12T12:09:55.685Z,10.03
2019-03-12T12:12:36.344Z,9.75
2019-03-12T12:15:17.189Z,11.68
2019-03-12T12:17:57.848Z,10.75
2019-03-12T12:20:38.646Z,10.35
2019-03-12T12:23:19.705Z,10.13
2019-03-12T12:26:00.653Z,6.80
2019-03-12T12:28:41.380Z,9.80
2019-03-12T12:31:21.928Z,8.05
2019-03-12T12:34:02.897Z,10.63
2019-03-12T12:36:43.620Z,9.90
2019-03-12T12:39:24.430Z,11.20
2019-03-12T12:42:05.339Z,10.93
2019-03-12T12:44:46.358Z,8.50
2019-03-12T12:47:27.400Z,12.17
2019-03-12T12:50:08.332Z,10.60
2019-03-12T12:52:49.180Z,10.05
2019-03-12T12:55:29.771Z,9.75
2019-03-12T12:58:10.320Z,8.13
2019-03-12T13:00:51.151Z,10.98
2019-03-12T13:03:32.141Z,8.50
2019-03-12T13:06:13.935Z,8.20
2019-03-12T13:08:54.935Z,6.87
2019-03-12T13:11:35.604Z,7.25
2019-03-12T13:14:16.176Z,8.08
2019-03-12T13:16:56.893Z,10.45
2019-03-12T13:19:37.537Z,10.60
2019-03-12T13:22:18.064Z,8.13
2019-03-12T13:24:58.849Z,8.57
2019-03-12T13:27:42.508Z,7.65
2019-03-12T13:30:22.161Z,7.45
2019-03-12T13:33:03.117Z,9.77
2019-03-12T13:35:44.203Z,7.60
2019-03-12T13:38:25.129Z,8.53
2019-03-12T13:41:06.176Z,7.55
2019-03-12T13:43:46.571Z,8.37
2019-03-12T13:46:27.274Z,8.88
2019-03-12T13:49:07.751Z,7.75
2019-03-12T13:51:49.063Z,8.85
2019-03-12T13:54:29.989Z,7.75
2019-03-12T13:57:10.409Z,6.90
2019-03-12T13:59:50.944Z,9.50
2019-03-12T14:02:31.477Z,9.20
2019-03-12T14:05:11.743Z,7.57
2019-03-12T14:07:52.598Z,9.25
2019-03-12T14:10:33.184Z,7.67
2019-03-12T14:13:13.786Z,7.37
2019-03-12T14:15:54.868Z,7.00
2019-03-12T14:18:36.006Z,7.20
2019-03-12T14:21:16.724Z,8.60
2019-03-12T14:23:57.569Z,5.65
2019-03-12T14:26:38.429Z,7.30
2019-03-12T14:29:19.437Z,8.75
2019-03-12T14:31:59.908Z,7.42
2019-03-12T14:34:40.788Z,6.62
2019-03-12T14:37:21.238Z,7.53
2019-03-12T14:40:02.000Z,8.10
2019-03-12T14:42:42.924Z,8.45
2019-03-12T14:45:23.856Z,6.58
2019-03-12T14:48:04.858Z,5.42
2019-03-12T14:50:45.276Z,6.37
2019-03-12T14:53:26.441Z,6.03
2019-03-12T14:56:07.060Z,7.03
2019-03-12T14:58:51.036Z,7.47
2019-03-12T15:01:30.756Z,6.45
2019-03-12T15:04:14.767Z,5.33
2019-03-12T15:06:53.645Z,7.03
2019-03-12T15:09:34.331Z,5.80
2019-03-12T15:12:16.017Z,6.05
2019-03-12T15:14:44.970Z,5.37
2019-03-12T15:17:13.742Z,5.70
2019-03-12T15:20:01.956Z,6.78
2019-03-12T15:22:49.924Z,5.65
2019-03-12T15:25:38.125Z,5.97
2019-03-12T15:28:26.096Z,6.58
2019-03-12T15:31:14.059Z,5.28
2019-03-12T15:34:02.032Z,5.75
2019-03-12T15:36:49.980Z,6.10
2019-03-12T15:39:37.945Z,7.15
2019-03-12T15:42:25.904Z,8.05
2019-03-12T15:45:14.308Z,4.42
2019-03-12T15:48:02.280Z,6.40
2019-03-12T15:50:50.531Z,6.53
2019-03-12T15:53:38.503Z,4.65
2019-03-12T15:56:49.545Z,10.63
2019-03-12T15:59:56.777Z,5.85
2019-03-12T16:02:25.558Z,8.38
2019-03-12T16:05:13.708Z,6.20
2019-03-12T16:07:54.865Z,5.57
2019-03-12T16:10:35.157Z,5.62
2019-03-12T16:13:15.978Z,6.03
2019-03-12T16:15:56.853Z,7.33
2019-03-12T16:18:37.328Z,6.03
2019-03-12T16:21:17.938Z,4.08
2019-03-12T16:23:58.780Z,3.40
2019-03-12T16:26:39.514Z,5.70
2019-03-12T16:29:20.397Z,6.67
2019-03-12T16:32:01.178Z,5.50
2019-03-12T16:34:41.964Z,5.03
2019-03-12T16:37:22.622Z,4.22
2019-03-12T16:40:03.056Z,5.83
2019-03-12T16:42:43.721Z,4.03
2019-03-12T16:45:24.208Z,4.00
2019-03-12T16:48:04.870Z,4.25
2019-03-12T16:50:45.509Z,3.92
2019-03-12T16:53:32.944Z,5.90
2019-03-12T16:56:21.700Z,4.20
2019-03-12T16:59:02.860Z,4.40
2019-03-12T17:01:31.620Z,4.25
2019-03-12T17:07:06.407Z,4.20
2019-03-12T17:09:47.745Z,4.83
2019-03-12T17:12:28.387Z,5.57
2019-03-12T17:15:09.036Z,5.65
2019-03-12T17:17:49.483Z,6.25
2019-03-12T17:20:30.286Z,5.30
2019-03-12T17:23:10.896Z,4.12
2019-03-12T17:25:51.469Z,4.00
2019-03-12T17:28:32.059Z,4.10
2019-03-12T17:31:12.564Z,5.25
2019-03-12T17:33:53.836Z,4.97
2019-03-12T17:36:34.983Z,5.03
2019-03-12T17:39:15.925Z,5.10
2019-03-12T17:41:57.289Z,4.93
2019-03-12T17:44:37.619Z,5.50
2019-03-12T17:47:18.437Z,5.28
2019-03-12T17:49:58.900Z,5.10
2019-03-12T17:52:39.522Z,5.73
2019-03-12T17:55:20.034Z,5.70
2019-03-12T17:58:00.729Z,4.17
2019-03-12T18:00:43.157Z,6.50
2019-03-12T18:03:23.622Z,5.47
2019-03-12T18:06:04.520Z,5.87
2019-03-12T18:08:45.388Z,4.83
2019-03-12T18:11:26.874Z,3.58
2019-03-12T18:14:07.584Z,3.40
2019-03-12T18:16:48.035Z,3.50
2019-03-12T18:19:28.527Z,5.50
2019-03-12T18:22:09.339Z,3.92
2019-03-12T18:24:50.151Z,5.05
2019-03-12T18:27:31.268Z,5.37
2019-03-12T18:30:11.647Z,5.53
2019-03-12T18:32:52.252Z,4.00
2019-03-12T18:35:32.698Z,4.50
2019-03-12T18:38:13.679Z,6.75
2019-03-12T18:40:54.193Z,5.03
2019-03-12T18:43:35.097Z,6.72
2019-03-12T18:46:15.933Z,5.00
2019-03-12T18:48:57.432Z,5.35
2019-03-12T18:51:37.999Z,6.37
2019-03-12T18:54:18.561Z,5.78
2019-03-12T18:56:59.508Z,4.78
2019-03-12T18:59:39.914Z,5.10
2019-03-12T19:02:21.812Z,4.87
2019-03-12T19:05:02.238Z,3.25
2019-03-12T19:13:42.361Z,3.43
2019-03-12T19:16:23.256Z,3.22
2019-03-12T19:19:04.061Z,4.22
2019-03-12T19:21:44.797Z,4.08
2019-03-12T19:24:25.658Z,3.77
2019-03-12T19:27:06.582Z,4.70
2019-03-12T19:29:46.847Z,5.27
2019-03-12T19:32:34.377Z,4.72
2019-03-12T19:35:15.483Z,5.35
2019-03-12T19:37:56.226Z,7.95
2019-03-12T19:40:37.487Z,5.30
2019-03-12T19:43:18.042Z,5.35
2019-03-12T19:45:58.768Z,4.97
2019-03-12T19:48:38.068Z,4.47
2019-03-12T19:51:36.989Z,4.83
2019-03-12T19:54:25.470Z,4.30
2019-03-12T19:57:13.543Z,4.97
2019-03-12T20:00:01.530Z,5.55
2019-03-12T20:02:49.764Z,4.47
2019-03-12T20:05:37.788Z,4.30
2019-03-12T20:08:18.245Z,4.87
2019-03-12T20:10:58.889Z,4.78
2019-03-12T20:13:39.440Z,4.75
2019-03-12T20:16:20.115Z,5.37
2019-03-12T20:19:00.776Z,3.87
2019-03-12T20:21:41.944Z,4.35
2019-03-12T20:24:22.504Z,4.05
2019-03-12T20:27:03.551Z,3.27
2019-03-12T20:29:46.441Z,4.00
2019-03-12T20:32:26.876Z,5.55
2019-03-12T20:35:08.334Z,5.05
2019-03-12T20:37:49.381Z,4.80
2019-03-12T20:40:30.023Z,4.35
2019-03-12T20:43:10.935Z,3.98
2019-03-12T20:45:51.718Z,3.50
2019-03-12T20:48:32.587Z,6.25
2019-03-12T20:51:13.384Z,4.08
2019-03-12T20:53:54.357Z,5.22
2019-03-12T20:56:35.368Z,4.42
2019-03-12T20:59:16.067Z,3.87
2019-03-12T21:01:56.920Z,5.12
2019-03-12T21:05:04.117Z,5.50
2019-03-12T21:07:44.618Z,4.78
2019-03-12T21:10:25.173Z,4.28
2019-03-12T21:13:05.867Z,4.95
2019-03-12T21:15:49.767Z,5.63
2019-03-12T21:18:31.236Z,4.33
2019-03-12T21:21:11.728Z,4.72
2019-03-12T21:23:52.491Z,4.83
2019-03-12T21:26:33.361Z,5.10
2019-03-12T21:29:14.680Z,4.30
2019-03-12T21:31:55.525Z,4.10
2019-03-12T21:34:36.791Z,3.52
2019-03-12T21:37:18.249Z,3.67
2019-03-12T21:39:59.487Z,4.20
2019-03-12T21:42:40.382Z,4.58
2019-03-12T21:45:21.657Z,4.22
2019-03-12T21:48:02.492Z,5.28
2019-03-12T21:52:21.988Z,4.97
2019-03-12T21:55:02.431Z,4.95
2019-03-12T21:57:43.160Z,4.20
2019-03-12T22:00:23.773Z,4.10
2019-03-12T22:03:04.396Z,4.60
2019-03-12T22:05:45.373Z,4.23
2019-03-12T22:08:26.376Z,4.07
2019-03-12T22:11:06.983Z,5.05
2019-03-12T22:13:47.341Z,5.47
2019-03-12T22:16:28.729Z,3.65
2019-03-12T22:19:09.409Z,4.20
2019-03-12T22:22:09.165Z,3.70
2019-03-12T22:24:49.652Z,4.22
2019-03-12T22:27:30.533Z,4.17
2019-03-12T22:30:11.324Z,4.03
2019-03-12T22:32:52.092Z,4.92
2019-03-12T22:35:33.162Z,2.90
2019-03-12T22:38:13.868Z,4.62
2019-03-12T22:40:54.406Z,4.67
2019-03-12T22:43:34.934Z,3.85
2019-03-12T22:46:15.444Z,3.98
2019-03-12T22:48:56.013Z,4.35
2019-03-12T22:51:36.805Z,4.00
2019-03-12T22:54:17.754Z,3.02
2019-03-12T22:56:58.136Z,3.87
2019-03-12T22:59:38.749Z,2.80
2019-03-12T23:02:19.784Z,3.92
2019-03-12T23:05:00.332Z,4.20
2019-03-12T23:07:41.685Z,4.23
2019-03-12T23:10:23.612Z,3.27
2019-03-12T23:13:04.160Z,4.57
2019-03-12T23:15:44.921Z,3.27
2019-03-12T23:18:25.600Z,3.95
2019-03-12T23:21:06.401Z,2.22
2019-03-12T23:23:47.157Z,2.10
2019-03-12T23:26:27.649Z,1.87
2019-03-12T23:29:08.275Z,2.35
2019-03-12T23:31:49.129Z,2.15
2019-03-12T23:34:30.080Z,2.80
2019-03-12T23:37:11.091Z,2.10
2019-03-12T23:39:51.760Z,2.00
2019-03-12T23:42:32.496Z,2.20
2019-03-12T23:45:13.357Z,3.20
2019-03-12T23:47:54.556Z,2.25
2019-03-12T23:50:35.332Z,2.12
2019-03-12T23:53:16.378Z,1.70
2019-03-12T23:55:57.561Z,1.80
2019-03-12T23:58:38.220Z,2.10
